events-overview

Kinetic Half

 

Overall Results

Lake Anna State Park - Spotsylvania, VA 5/11/2013 07:00AM

** Results are for the private use of participants and are the Intellectual Property of Set Up Events. Unauthorized use of these results is prohibited.

Place Bib Co Ag S NAME city/state DQ Rank Swim&T1 Rank Bike Rank T2&Run PENALTY TIME DQ
11 43MKelly WilliamsonFairfax VA 5000:35:22102:14:30301:22:51 04:12:42 
2220 33MTodd BurnsAlexandria VA 800:30:48602:19:43501:24:19 04:14:49 
375 27MColin GundlingPittsburgh PA 600:30:31802:19:54801:26:26 04:16:50 
47 41MMichael StevensonArlington VA 300:30:081102:21:091201:26:51 04:18:07 
5476 32MDaniel J BrienzaAlexandria VA 1400:31:29302:18:321301:28:46 04:18:46 
6415 25MMatthew IsonOxford NC 4600:35:17902:19:58601:25:30 04:20:45 
7483 25MJacob GildenArlington VA 3400:33:422102:25:20201:22:14 04:21:15 
8363 29MDan HarrisArlington VA 1300:31:222602:26:12401:24:17 04:21:50 
9515MM27MAndy CahoyArlington VA 7200:37:13402:19:31701:25:53 04:22:35 
10292 38MBryan FrankGaithersburg MD 2500:32:571602:24:03901:26:27 04:23:26 
1194 36MRobert GreenMidlothian VA 700:30:42202:18:083501:36:03 04:24:53 
12308 43MJohn SchlosserKennett Square PA 5800:35:58702:19:481901:32:10 04:27:55 
13407 38MBrady DehoustReston VA 4800:35:202202:25:481101:26:51 04:27:58 
14408 32MDaniel RoyceRichmond VA 200:29:552502:26:002601:33:58 04:29:52 
15204 31MJustin MoyerRichmond VA 1600:31:501002:20:574701:38:16 04:31:01 
16298 39MJoel BellVirginia Beach VA 4000:34:152702:27:071401:29:52 04:31:12 
17343 37MRobert ScheungrabGettysburg PA 6600:36:332402:25:551601:29:57 04:32:24 
18379MM31MNicholas BrownArlington VA 2100:32:214402:30:161701:31:42 04:34:18 
1992 46MMarion HerringRichmond VA 900:31:054202:30:122201:33:10 04:34:25 
20364 44MSteve RussellSeverna Park MD 6200:36:123802:29:201801:31:46 04:37:18 
21164 43MChad AlbrightRoanoke VA 5500:35:471802:24:084101:37:48 04:37:43 
22315 48MMichael BabaSilver Spring MD 9900:38:371402:22:243901:37:17 04:38:16 
23464 26FRachel JastrebskyChesapeake VA 3200:33:375202:31:442401:33:30 04:38:50 
24367 26FChristine NicholsBurke VA 1200:31:093202:28:395501:39:48 04:39:35 
2530 44MSteven SmithHampton VA 9200:38:284302:30:132001:32:20 04:41:00 
2658 34MNathan RickmanFairfax VA 7600:37:313602:29:192701:34:16 04:41:05 
27405 42MMatt KempleBelmar NJ 7900:37:351702:24:045601:39:49 04:41:26 
28485 46MKevin KroppFalls Church VA 13500:39:597302:35:091001:26:33 04:41:40 
29395 44MGlenn OlsenRockville MD 9500:38:31502:19:417001:43:32 04:41:43 
30514MM31MMatthew PriessNorth Bethesda MD 10700:39:033102:28:342801:34:39 04:42:16 
PlaceBibCoAgSNAMEcity/stateDQRankSwim&T1RankBikeRankT2&RunPENALTYTIMEDQ
31409 46MSaulius PuskoriusVienna VA 8400:37:442302:25:515201:39:08 04:42:42 
3241 34MShaun ReddyWashington DC 7500:37:284802:31:342901:34:44 04:43:45 
33474 33MRyan McCreadyColumbus OH 6100:36:052802:27:086001:40:41 04:43:53 
34440 33MRyan GundlingStaunton VA 15400:40:581502:23:165701:40:02 04:44:15 
35255 29MMike StanekWashington DC 3700:33:487002:34:563601:36:33 04:45:15 
36131 37MJesse TubbSavage MD 12600:39:493502:28:563701:36:37 04:45:22 
37248 33FKendra GoffredoEscondido CA 9800:38:355802:32:243101:35:01 04:45:59 
38397 32MMichael WolfeVirginia Beach VA 12400:39:456002:32:481501:29:5600:04:0004:46:28 
3991 35MJohn KingChristiansburg VA 7300:37:175102:31:404201:37:52 04:46:47 
40581 41MSteve PolicastroWaldorf MD 2900:33:269602:38:123401:36:02 04:47:38 
41126 37MAdam StolzbergArlington VA 29200:46:053402:28:562101:32:57 04:47:56 
42180 36MPeter ViscardoWayne PA 16100:41:226102:32:503201:35:10 04:49:21 
4380 41MAdam FragerNewport News VA 5200:35:284102:29:497701:44:32 04:49:48 
44341 32MAndrew CrossBurke VA 8700:38:015402:31:575901:40:35 04:50:31 
45305 42MTerry Mannion JrWest Chester PA 6500:36:287702:35:534801:38:25 04:50:44 
46119 26MBenjamin LooknerWashington DC 2600:33:0611102:40:214401:38:01 04:51:27 
47435 36MJeffery PlattZelienople PA 16200:41:257402:35:183001:34:53 04:51:36 
48509MM28MDouglas AndradeVirginia Beach VA 11000:39:124502:30:186301:42:20 04:51:49 
49472 53MMarty StiegmannGlen Allen VA 12300:39:424602:30:296101:41:55 04:52:06 
50266 33MDana ConnorsWashington DC 3900:34:037502:35:196801:43:20 04:52:41 
51154 28FDawn RiebelingArlington VA 8500:37:468302:36:195001:38:47 04:52:51 
5272 47MDarin SladeFalls Church VA 13700:40:056502:33:385301:39:32 04:53:14 
53291 40MDavid HartmanWayne PA 7800:37:335702:32:077401:43:54 04:53:33 
54477 39MAndrew RoseGlen Allen VA 17200:41:535002:31:374901:38:2900:04:0004:55:57 
5532 35MWesley BrownAlexandria VA 1500:31:465302:31:5213401:53:02 04:56:40 
56257 42MPhilip BaetckeFalls Church VA 12100:39:4110202:39:194001:37:42 04:56:41 
57362 38MGeorge MarutWake Forest NC 10000:38:387902:35:596201:42:20 04:56:57 
58386 48MIsidoro ReverteHerndon VA 400:30:266602:34:0912801:52:24 04:56:58 
594 49MKenneth DownerMechanicsburg PA 11600:39:296202:33:207501:44:24 04:57:13 
60168 48MCharles SmithRoanoke VA 6900:36:553002:27:4713101:52:55 04:57:37 
61329 33MCharles ShepardStaunton VA 11500:39:257202:35:016901:43:25 04:57:50 
PlaceBibCoAgSNAMEcity/stateDQRankSwim&T1RankBikeRankT2&RunPENALTYTIMEDQ
62274 36MChris LombardiWashington DC 5700:35:4917802:46:223301:35:49 04:58:00 
63244 34MPatrick RyanArlington VA 1800:32:179402:37:5810001:48:32 04:58:46 
64245 46MBrad OnofrioGlen Allen VA 6400:36:282902:27:1015401:55:38 04:59:16 
65112 42MRyan GrovePittsburgh PA 2800:33:2410302:39:226601:42:5500:04:0004:59:39 
66279 52MLawrence BowersChesapeake VA 13300:39:578202:36:177201:43:37 04:59:50 
67107 31MThomas KrzmarzickOswego IL 10400:38:597102:35:008001:45:59 04:59:57 
6870 47MJoe SnyderSalem VA 3600:33:484902:31:3614901:54:57 05:00:19 
69459 19MBrandon GutierrezSwan Point MD 11100:39:14    00:04:0005:00:23 
70401 65MWilliam WrenArlington VA 4200:34:297602:35:3411601:50:49 05:00:52 
71489C30MWilliam GreerArlington VA 20000:43:063702:29:1910201:48:50 05:01:15 
72578 36MAndrew JonesArlington VA 2700:33:138702:36:599101:47:4500:04:0005:01:56 
73370 32FCaroline LauverArlington VA 8200:37:449502:38:058201:46:18 05:02:05 
74105 36MPatrick PannettWashington DC 24500:44:3110702:39:514501:38:01 05:02:22 
75307 33MRaymond GephartAlexandria VA 8900:38:0817202:45:425101:38:59 05:02:48 
76214 39MLee SusenCharlottesville VA 13000:39:538602:36:478701:46:57 05:03:36 
77406 45FCheryl McMurrayFairfax VA 9300:38:299202:37:548901:47:37 05:03:58 
7884 30FStephanie BrownWashington DC 2000:32:2013602:42:1910801:49:26 05:04:05 
79455 22MGuy SkordAnnapolis MD 13600:40:0218402:46:504301:38:00 05:04:51 
80106 37MMichael BelhPitman NJ 9400:38:2914002:42:387601:44:28 05:05:35 
81189 37MSteve BurtisRoanoke VA 17800:42:115602:32:048801:47:2700:04:0005:05:41 
82488C38MSimon UrryVienna VA 8300:37:443902:29:2914601:54:4900:04:0005:06:02 
83372 44MJohn SteeleAlexandria VA 23100:43:4810102:39:137301:43:50 05:06:50 
84467 46MDavid OlichneyLynchburg VA 26200:45:05     05:06:51 
85577 41MDrew MarvinFairfax VA 10300:38:575902:32:2715801:55:43 05:07:06 
86169 28MSteven KellerNewport News VA 11900:39:3714302:42:547901:45:53 05:08:23 
87337 30MDenis MoffettBallston Lake NY 14600:40:4216202:44:396701:43:08 05:08:28 
88492C26MTy BoyleSewickley PA 19700:42:534702:31:2311301:50:1200:04:0005:08:28 
89234 33MThaddeus MinshallWashington DC 9700:38:3418302:46:367101:43:36 05:08:45 
90336 57MGreg GuintherRichmond VA 10100:38:448502:36:4214101:53:59 05:09:24 
91232 38MSean ReinckeEast New Market MD 13400:39:5820602:49:365801:40:28 05:10:00 
9222 47MDaniel AndersonRockville MD 16400:41:3310802:39:5810101:48:44 05:10:14 
PlaceBibCoAgSNAMEcity/stateDQRankSwim&T1RankBikeRankT2&RunPENALTYTIMEDQ
93328 29FAmy BrutonHerndon VA 4500:35:0919302:47:349401:47:49 05:10:32 
94369 40MJames RawlinsCharles Town WV 30200:46:3515802:44:135401:39:45 05:10:32 
95505MM23MChristopher CeconiVienna VA 14800:40:4713002:41:569501:47:51 05:10:34 
96300 57MMark LongRoanoke VA 11700:39:3216602:45:098501:46:42 05:11:22 
97163 54MJohn MazurArlington VA 10500:38:5910602:39:4210401:49:0400:04:0005:11:44 
98465 46MBruce EnglishWaynesboro VA 13200:39:5611702:40:3112101:51:21 05:11:48 
99249 27MDavid HoweManassas VA 16900:41:4913202:42:0810301:48:59 05:12:54 
100193 34MScott LearyWashington DC 8000:37:4111502:40:2914801:54:55 05:13:04 
101318 53MTim DuffeyArlington VA 22200:43:349102:37:4612501:51:48 05:13:06 
10256 38MDavid ShandChesterfield VA 14700:40:4314502:43:0610901:49:27 05:13:14 
103121 37MThomas PulhamWashington DC 13900:40:0618002:46:328401:46:41 05:13:18 
104480 38MSean HannonCary NC 31900:47:4624002:52:422301:33:10 05:13:38 
105239 43FOlwen HuxleyWashington DC 9000:38:1511002:40:1115301:55:24 05:13:49 
106592 29MScott SeligmanGainesville VA 6300:36:2322102:51:258101:46:04 05:13:51 
107365 49MGary BussBlacksburg VA 28900:46:008802:37:0411701:50:54 05:13:57 
108596 69MDavid GearinArlington VA 32200:47:5123702:52:302501:33:37 05:13:57 
109297 38MJeff WhiteElkins WV 32000:47:486402:33:3113301:53:01 05:14:19 
110296 40MChristopher HolbrookBethesda MD 17300:41:5613702:42:3511201:49:58 05:14:27 
111325 41FKasha WilliamsonFairfax VA 19900:43:0515602:44:069001:47:37 05:14:47 
11250 39MDan FulkUrbana MD 11300:39:1711402:40:2915101:55:04 05:14:48 
113458 47MMark TaylorRoanoke VA 10800:39:1016402:44:5811501:50:42 05:14:49 
114240 31MCharles KaplanAlexandria VA 12800:39:5117402:45:5410601:49:09 05:14:52 
115319 47MRobert TothFalls Church VA 15800:41:1411902:40:4113201:52:59 05:14:53 
116117 30MGabriel EspinolaOakton VA 11200:39:168902:37:2317701:58:35 05:15:13 
117317 35MTodd StaffordLeesburg VA 21700:43:268002:36:1115701:55:40 05:15:16 
118195 33MKenneth KeskeConcord NC 10200:38:5313902:42:3714001:53:54 05:15:23 
119278 49MJames GodekVa Beach VA 31300:47:1911602:40:309801:48:17 05:16:05 
12028 39MJorlie CruzAlexandria VA 35800:49:2910002:38:429601:48:03 05:16:13 
121399 52MStephen MessingerArlington VA 9600:38:3321102:50:369301:47:48 05:16:56 
122222 40FJenny LagerquistAlexandria VA 7700:37:329002:37:3220602:01:58 05:17:00 
123430 28FJennifer LeeheyWashington DC 6000:36:0419502:47:4910501:49:0800:04:0005:17:01 
PlaceBibCoAgSNAMEcity/stateDQRankSwim&T1RankBikeRankT2&RunPENALTYTIMEDQ
124443 39MJames DillonChesterfield VA 19200:42:368402:36:3617601:58:27 05:17:37 
125144 53MPaul IngholtVienna VA 3100:33:369302:37:5620802:02:2300:04:0005:17:54 
126230 38MDrew McElhareArlington VA 37700:50:357802:35:5912301:51:24 05:17:57 
127100 38FLisa HowensteinClifton VA 2400:32:5313102:41:5821602:03:09 05:17:59 
128270 37MAlejandro EscobarArlington VA 6800:36:4425902:54:568301:46:29 05:18:08 
129210 48MChris ReillyBlacksburg VA 3800:33:5718502:46:5316601:57:24 05:18:13 
130383 62MBob YoungMcLean VA 23400:43:556902:34:5118701:59:48 05:18:32 
13189 38MBenjamin PhelpsWashington DC 20800:43:1619102:47:129701:48:12 05:18:39 
13225 41MJay CochranMontgomery Village MD 41800:52:586302:33:2213001:52:40 05:18:59 
133139 50MBill ReidChantilly VA 28000:45:446802:34:3018301:59:13 05:19:26 
134124 24MRobert PattersonGlen Allen VA 16800:41:4619902:48:3610701:49:14 05:19:35 
135258 48MMark WalterCenterville VA 32600:48:1315302:43:479201:47:46 05:19:45 
13636 28MPaul ScanlonRichmond VA 25100:44:3728302:58:133801:37:08 05:19:57 
137288 28FAndrea MartinClifton VA 2200:32:3120202:48:5217901:58:37 05:19:59 
138122 27MErik BergmannWashington DC 20100:43:0715502:44:0413501:53:10 05:20:20 
139437 32MChristopher BradleyVirginia Beach VA 24900:44:3613502:42:15101:16:36 05:20:50 
140344 34MStephen MillerHampton VA 25900:44:5911302:40:2415501:55:38 05:21:00 
141491C32MJonathan PottertonVirginia Beach VA 17500:42:0512702:41:1716901:57:40 05:21:00 
142461 38MTrent ArnoldVirginia Beach VA     14401:54:39 05:21:04 
143600 26MOliver PalmerArlington VA 7000:37:0026002:55:2211101:49:52 05:22:13 
144174 25MMcKenzie DittyHagerstown MD 15500:41:0018802:47:0214301:54:30 05:22:32 
145444 22MTaylor DowellRichmond VA 8600:37:5225302:54:2811401:50:32 05:22:51 
146171 35MThomas GenareoLakewood NY 24800:44:339802:38:3019202:00:07 05:23:09 
147342 35MJoseph CoyneWashington DC 33700:48:3912602:41:1213901:53:48 05:23:38 
148323 43MShawn KyleHuntingtown MD 30800:46:5720102:48:509901:48:28 05:24:13 
149570 16FKatriona McNeillChevy Chase MD 4700:35:1838003:11:404601:38:08 05:25:05 
150486 48MMark RetherfordWashington DC 18900:42:27     05:25:10 
151309 32MJohn KusturissOlney MD 31500:47:2110502:39:3617301:58:20 05:25:16 
152353 52MVincent OrtizChesapeake VA 22800:43:4016802:45:1416201:56:30 05:25:23 
153133 50MCarl SchneiderEllicott City MD 35600:49:2612102:40:4816101:56:13 05:26:26 
154384 30MChad WallaceAlexandria VA 30500:46:5015002:43:3715901:56:01 05:26:27 
PlaceBibCoAgSNAMEcity/stateDQRankSwim&T1RankBikeRankT2&RunPENALTYTIMEDQ
155348 37MThomas DouglasHaymarket VA 28400:45:5221002:50:1612001:51:07 05:27:13 
156580 42MBrett CoffeeBurke VA 30600:46:5115102:43:4016301:56:54 05:27:25 
157231 41MChristopher WebbCanonsburg PA 7400:37:2710402:39:3317501:58:2700:12:0005:27:26 
15855 38MWayne DuncanIvor VA 7100:37:1229302:58:5212201:51:23 05:27:27 
159417 46MScott EngelbrechtCentreville VA 32100:47:4924202:52:558601:46:44 05:27:27 
160332 35FKristine WootenReston VA 19600:42:5325202:54:2711801:51:00 05:28:19 
1616 38MBrent KynastonFredericksburg VA 22000:43:2923202:52:1113801:53:44 05:29:23 
162299 52MDavid TurveneArlington VA 22900:43:4410902:40:0421702:03:16 05:29:34 
163598 34MJesse KiefferGaithersburg MD 38700:51:1120302:48:5811001:49:29 05:29:38 
164243 44MJohn WorkmanWashington DC 33100:48:2212402:41:0519302:00:23 05:29:48 
165134 47FDiana LohmeyerVienna VA 12700:39:5120802:50:0119102:00:05 05:29:56 
166216 53MAllen SimcoeFredericksburg VA 19800:43:0512002:40:4324402:07:11 05:30:58 
167217 46MRichard JenretteWashington DC 23700:44:0311202:40:2424002:06:43 05:31:09 
168282 31MJonathan BerneArlington VA 16700:41:4220002:48:4919702:00:49 05:31:20 
169125 26FHolli FinnerenWashington DC 24200:44:1515702:44:0721402:02:59 05:31:21 
170469 34MMichael MaloneyArlington VA 15100:40:53     05:31:34 
171448 49MCarlos SilvaPotomac MD 28700:45:5822402:51:3114501:54:44 05:32:12 
172566 33MJohn MatlockArlington VA 22100:43:3021402:50:4717401:58:21 05:32:37 
17348 54MJoey BairdArlington VA 30000:46:3112502:41:1223202:05:46 05:33:28 
174123 42MJeff HalperDerwood MD 16300:41:3117502:45:5823502:06:03 05:33:31 
175420 29FSuzanne PlantWashington DC 3300:33:4034703:05:3114201:54:23 05:33:34 
176442 41MJohn SchmidtFalls Church VA 23800:44:0518602:46:5421002:02:43 05:33:41 
177484 20MEric BelskiWashington PA 5300:35:32     05:34:09 
178111 44MMatt HurtgenWilmette IL 17000:41:5017302:45:5123902:06:37 05:34:17 
17982 46FLeanne McAllisterLeesburg VA 18400:42:2223002:52:0518901:59:54 05:34:19 
180433 43MPaul TalbotBristow VA 18000:42:1724402:53:1418001:58:52 05:34:22 
181226 44MDerek SchappertArlington VA 18500:42:2224102:52:4319002:00:01 05:35:04 
182426 60MChris DettmarReston VA 34500:49:0014802:43:1821102:02:49 05:35:05 
183110 44MDavid TuftsWinchester VA 27400:45:3617902:46:2921802:03:32 05:35:36 
184138 42MNickolai YakimovBrooklyn NY 26900:45:2535803:07:386501:42:43 05:35:45 
185118 26MMatthew MateseManassas VA 44700:54:5028702:58:236401:42:35 05:35:47 
PlaceBibCoAgSNAMEcity/stateDQRankSwim&T1RankBikeRankT2&RunPENALTYTIMEDQ
186162 27MRob HallidayFalls Church VA 24000:44:1025102:54:1816801:57:32 05:35:59 
18720 50MHelmut DollDanville PA 27700:45:3914102:42:4224902:07:39 05:35:59 
188326 30MCamilo RamirezWashington DC 30100:46:3319602:48:0420402:01:49 05:36:26 
18923 43MGuillermo CabreraWashington DC 42300:53:2122202:51:2812601:52:00 05:36:48 
190463 28FCatherine RowanAlexandria VA 3000:33:2926602:56:0924502:07:18 05:36:55 
191585 16MKyle ChangLeesburg VA 1700:32:0042203:19:497801:45:16 05:37:05 
192128 41MStephen HunniusAlexandria VA 36200:49:4617002:45:3820502:01:57 05:37:21 
193142 48MJames LutzMcLean VA 31600:47:2218102:46:3421902:03:38 05:37:32 
194453 40MBrent McDuffieGaithersburg MD 20300:43:1225602:54:3618801:59:54 05:37:42 
195109 31FKathryn SiehndelWashington DC 18200:42:2025002:54:1720102:01:31 05:38:07 
196414 58MRob ColburnAshburn VA 14000:40:1015402:44:0430402:14:20 05:38:33 
197438 35MPierre DelaigueBesthesda MD 21400:43:2328602:58:2016501:57:07 05:38:48 
19864 20FCasey ThompsonAlexandria VA 17600:42:0817702:46:1323802:06:3000:04:0005:38:49 
199457 51MJoseph JonesKing George VA 17700:42:0920902:50:0624302:07:09 05:39:23 
200524NM33MBrian HaugliFairfax VA 13800:40:0517602:46:0629902:13:32 05:39:42 
201335 29MJames WilliamsWashington DC 39700:51:5418702:46:5919802:00:51 05:39:43 
20237 27MBenjamin WeinerArlington VA 15600:41:1020702:49:4925902:08:47 05:39:45 
203451 36MGarth KaliczakSuitland MD 17900:42:1416002:44:2729402:13:08 05:39:47 
204137 41MReza MahbodArlington VA 36700:50:0022802:51:4917101:58:00 05:39:47 
205186 42MEric CloutierEmerald Isle NC 23900:44:0723402:52:1622502:04:03 05:40:24 
206572 43FCari Del FratteAlexandria VA 39400:51:4616102:44:2923102:05:03 05:41:17 
207394 53FCarol HousamanWoodbridge VA 21800:43:2729002:58:3418501:59:20 05:41:20 
20821 59MJim MyersGainesville VA 9100:38:1811802:40:3234602:21:33 05:41:38 
209366 49FJanet BussBlacksburg VA 11800:39:3621902:51:1027902:10:59 05:41:44 
210358 42MRob WrightGlen Allen VA 17400:42:0213402:42:0932702:18:07 05:42:17 
211339 46MStephan HessPenn Laird VA 16500:41:3621802:51:0926502:09:42 05:42:26 
212233 40MBrent KendallWayland MA 41500:52:518102:36:1330102:13:41 05:42:44 
21345 46FLeah HaskvitzArlington VA 21300:43:2327002:56:4421502:03:01 05:43:07 
214235 33MJohn FranklinWashington DC 24300:44:1624302:52:5723402:06:00 05:43:11 
215357 31MThomas SchardtColumbia MD 35000:49:1012802:41:4028902:12:25 05:43:13 
216478 55MMichael FridleyPowhatan VA 35200:49:1625802:54:5418401:59:16 05:43:24 
PlaceBibCoAgSNAMEcity/stateDQRankSwim&T1RankBikeRankT2&RunPENALTYTIMEDQ
217403 54FSusan SwansonNorfolk VA 8100:37:4317102:45:3934302:20:47 05:44:08 
218201 43FSarah HennWashington DC 38400:50:5719202:47:2723302:05:48 05:44:11 
219591 41MClifford FarmerKing George VA 17100:41:5237303:10:1712701:52:11 05:44:19 
220499MC42MJohn LattaFairfax Station VA 21000:43:1721702:51:0427302:10:09 05:44:29 
22131 37FSara SwensonReston VA 5400:35:4426402:55:4229602:13:15 05:44:40 
222439 45MHugh HarrisNew Carrollton MD 12900:39:5235203:07:0017201:58:11 05:45:02 
223594 45FChristine SalmonSouth Riding VA 500:30:3143703:22:1012901:52:26 05:45:06 
224301 65MLarry AtkinsWashington DC 26500:45:1919702:48:3128202:11:19 05:45:08 
225236 57MRob BarnwellSilver Spring MD 18600:42:2229502:59:2322002:03:40 05:45:24 
22616 27FWhitney BlumeAlexandria VA 12500:39:4514602:43:1221302:02:56 05:45:34 
227568 54MJon-Paul DelangeAlexandria VA 14400:40:3824502:53:2125302:08:0600:04:0005:46:04 
228346 55MHoward PrideDanville PA 5900:35:5814202:42:4535502:23:3700:04:0005:46:19 
229213 36MMike BrownBrambleton VA 26100:45:0230703:00:5419502:00:32 05:46:27 
230260 41MAdrian FloresLeesburg VA 33200:48:3028502:58:1618601:59:43 05:46:28 
231396 50FJulia HigginsSpringfield VA 21900:43:2829102:58:4122702:04:20 05:46:28 
232410 41MMark HeidToms River NJ 25500:44:4922902:52:0027002:09:58 05:46:46 
233593 44MJeffrey SalmonSouth Riding VA 19000:42:3124702:53:4728002:11:00 05:47:18 
234525NM37MEduardo LambretonWashington DC 16000:41:1626702:56:1426802:09:51 05:47:20 
235466 35MAlex CastilloHerndon VA 18100:42:2028402:58:1624202:07:05 05:47:39 
236349 50MDavid AllenHarrisonburg VA 18300:42:2128002:57:4625002:07:43 05:47:49 
237411 42MJesse CaulfieldMcLean VA 8800:38:0628102:57:4728802:12:07 05:48:00 
238289 43MTom FontenotFredericksburg VA 15200:40:5426302:55:3429102:12:30 05:48:58 
239359 50MDavid KulikBethesda MD 33400:48:3232603:03:0117001:57:41 05:49:13 
240385 52MLars DahlStafford VA 15700:41:1127202:56:4728402:11:27 05:49:24 
24196 44MKeith SalisburyLorton VA 18700:42:2516902:45:3734802:22:02 05:50:04 
242177 54MSteven HerronChesapeake VA 28600:45:5721502:50:5829502:13:11 05:50:05 
24324 30FLillian ThomasGermantown MD 5600:35:4738703:13:2919902:00:56 05:50:11 
24478 45FTanya MasielloSouth Riding VA 40100:52:0524902:53:5522802:04:23 05:50:22 
24571 50MSerge VanderbreetstraetenAlexandria VA 23000:43:4718202:46:3631502:16:1900:04:0005:50:41 
246502MF27FJessica MillerChester VA 21500:43:2425502:54:3529202:12:43 05:50:41 
247198 56MGlenn YoungMattaponi VA 12000:39:3923302:52:1233202:19:09 05:50:59 
PlaceBibCoAgSNAMEcity/stateDQRankSwim&T1RankBikeRankT2&RunPENALTYTIMEDQ
248582 32FValerie DixWoodbridge VA 25400:44:4614402:43:0535402:23:18 05:51:08 
249129 41FCatherine GibbonsWashington DC 40800:52:2529902:59:5318201:59:13 05:51:29 
25051 48FJulie KennedyAlexandria VA 39800:51:5728902:58:3120002:01:02 05:51:30 
25181 43MEric GaierWashington DC 26000:45:0024802:53:5029302:12:45 05:51:33 
252421 35FAmanda JuratovicAlexandria VA 2300:32:3637903:11:2525202:08:06 05:52:05 
253487 55MSteven StantonColumbia MD 25200:44:3924602:53:2130902:15:21 05:53:21 
25435 37MAngel MelguizoWashington DC 35700:49:2838503:13:0811901:51:01 05:53:36 
255276 41FKeri Ann TatuskoWashington DC 38600:51:093302:28:5420702:02:01 05:53:38 
256392 68MJohn HunnicuttGlen Allen VA 14100:40:1239503:14:5517801:58:36 05:53:43 
257423 30MRicardo ValverdeArlington VA 35100:49:1225702:54:4327202:10:07 05:54:01 
258603 43FCris HowardReston VA 29100:46:0033503:04:0222602:04:04 05:54:06 
259473 19MKevin KondekSalisbury NC 29600:46:11     05:54:31 
26099 52MGreg MillerChesapeake VA 27000:45:289902:38:3939902:30:34 05:54:39 
261253 64MJohn GregoryRoanoke VA 20600:43:1525402:54:3332302:17:23 05:55:11 
262150 37FDena RichardsonWashington DC 33800:48:4026902:56:3927702:10:34 05:55:51 
263387 45MStephen GrassiSterling VA 33500:48:3223102:52:0630802:15:19 05:55:56 
264145 54MEd NorlanderCulpeper VA 33600:48:3329702:59:3825102:07:54 05:56:04 
2655 54MAl NavidiRockville MD 48701:00:2816702:45:1427802:10:42 05:56:23 
266293 38MPaul LaraLaurel MD 45800:55:4623602:52:1825602:08:32 05:56:35 
267360 29FJenna SwintonHerndon VA 24700:44:3235603:07:3022902:04:52 05:56:54 
268584 49MMiro LehkyCentreville VA 3500:33:4442703:20:5020902:02:33 05:57:07 
269352 48MPhilip KorologosNew York NV 18800:42:2519402:47:4237702:27:07 05:57:13 
270321 53MMark PedicelliHarrington XX 43400:54:0631103:01:3820202:01:32 05:57:15 
271166 47MPaul DaileyBethesda MD 41300:52:4833703:04:0619402:00:24 05:57:18 
27273 51MDavid SullivanWakefield MA 47300:58:0531203:01:5116701:57:27 05:57:23 
273229 37MDan MenmuirWoodbridge VA 28800:46:0030103:00:0728302:11:22 05:57:28 
27493 36FPiper HendricksWashington DC 25600:44:5040003:15:5116401:57:03 05:57:43 
275500MC41MChris DellChicago IL 23500:43:5616502:45:0339202:29:25 05:58:23 
276202 29FJennifer WallsArlington VA 37100:50:2030603:00:4924602:07:19 05:58:27 
277445 20MJoshua FordSterling VA 23600:44:0027902:57:3832102:16:55 05:58:33 
278206 48MDerrek SanksAlexandria VA 42100:53:0737203:09:5115601:55:38 05:58:35 
PlaceBibCoAgSNAMEcity/stateDQRankSwim&T1RankBikeRankT2&RunPENALTYTIMEDQ
279390 29MJonathan MoistCary NC 36000:49:3734003:04:2723002:05:01 05:59:05 
280449 38FAndrea WuebkerWashington DC 16600:41:3626502:55:4235002:22:10 05:59:27 
281418 52MBrian RedmondRichmond VA 27900:45:4215202:43:4637202:26:1400:04:0005:59:41 
28276 27FStephanie GundlingPittsburgh PA 26800:45:2539003:13:5819602:00:47 06:00:09 
283376 35MJosh LemastersCulpeper VA 37500:50:3133303:03:4623602:06:10 06:00:26 
284254 30MPiyush AggarwalaWashington DC 42400:53:2233903:04:1421202:02:52 06:00:27 
285102 26MSam CowleyArlington VA 41400:52:5022602:51:4231402:16:10 06:00:40 
286302 29FAdrianne BrakefieldWashington Dc DC 21600:43:2636003:08:0826202:09:08 06:00:42 
287277 35MAndrew SergentLake Ridge VA 47900:58:4422702:51:4527602:10:29 06:00:57 
288179 30FLauren AttardBethesda MD 31700:47:3830203:00:1330202:13:49 06:01:39 
289334 58MRandy GreaserWoodstock GA 38000:50:4721302:50:4034002:20:14 06:01:40 
290246 34MKen CuddebackSterling VA 37400:50:2922302:51:3033802:19:58 06:01:56 
291127 34FElaine WongGaithersburg MD 32900:48:1727402:56:5731702:16:50 06:02:04 
292431 26FMeaghan JennisonWashington DC 15300:40:5833603:04:0632202:17:14 06:02:17 
293190 31MRyan WachterPennsauken NJ 34600:49:0341503:18:3715001:55:00 06:02:39 
294378 45MMike PorterFredericksburg VA 38100:50:4841403:18:1713701:53:44 06:02:49 
29560 28FJamie WaterhouseArlington VA 48901:01:3028202:58:0522102:03:42 06:03:15 
296429 49MGeorge JanvierAnnapolis MD 43800:54:3930503:00:4026002:08:51 06:04:10 
297450 18FAdeli BlockSpringfield VA 14200:40:1942403:20:0822402:03:50 06:04:17 
298355 29FSarah JonesCentreville VA 25800:44:5836803:09:2427102:10:01 06:04:22 
299310 32MJohn BocekWashington DC 42000:53:0227502:57:0830502:14:25 06:04:34 
300571 56FKatherine BowdringAlexandria VA 10600:39:0034803:05:5933902:20:01 06:05:00 
301454 45MJoe HoffRoanoke VA 31400:47:2023502:52:1836802:25:37 06:05:15 
30274 34MFrantisek SovaTowson MD 38900:51:2029402:58:5330702:15:16 06:05:28 
303275 43MCollin TatuskoWashington DC 11400:39:2426202:55:3240102:30:43 06:05:38 
304316 40FAnnalee RuweLeesburg VA 100:29:0341003:17:2833302:19:15 06:05:45 
305221 34MDaniel FalkAnnapolis MD 24400:44:1938403:13:0526302:09:13 06:06:35 
30647 40FWendy McDonaldBethel Park PA 26700:45:2330903:01:2932802:18:37 06:06:45 
307371 36FMeredith ColginAshburn VA 39000:51:2140803:16:5618101:58:54 06:07:10 
308283 54MJohn OroschSpeingfield VA 32700:48:1631603:02:0931602:16:46 06:07:10 
30917 52MPete CoughlinReston VA 47400:58:1031303:01:5224802:07:24 06:07:26 
PlaceBibCoAgSNAMEcity/stateDQRankSwim&T1RankBikeRankT2&RunPENALTYTIMEDQ
310597 28FLindsey ChristensenArlington VA 40700:52:2335903:08:0824102:07:03 06:07:33 
311176 59MBruce DouglassFairfax VA 38800:51:2018902:47:0439102:29:16 06:07:39 
312479 29MScott LedgerwoodAlexandria VA 32400:48:0332303:02:4831902:16:53 06:07:43 
313428 47MDaniel VorsterGlen Allen VA 33000:48:1832403:02:5032002:16:55 06:08:26 
314573 38MEduardo VelasquezSilver Spring MD 14500:40:4047903:31:5016001:56:02 06:08:31 
315377 20MKerlin DossBlacksburg VA 49801:03:5737103:09:5014701:54:53 06:08:39 
31642 37MEduardo SardinaWashington DC 23200:43:5127602:57:1939002:29:05 06:10:14 
317512MM31MGlenn AthertonNorfolk VA 35300:49:1731503:02:0533402:19:18 06:10:40 
31846 47MJudah Dal CaisArlinton VA 42600:53:3229602:59:2432902:18:43 06:11:38 
319247 26FCasey CrowleyRockville MD 22500:43:3630803:01:2437302:26:45 06:11:44 
320153 40MEric YoutzMoyock NC 40500:52:1931903:02:2832502:17:40 06:12:26 
321261 37MEdwin HernandezLeesburg VA 19300:42:3920502:49:3443102:41:23 06:13:34 
322227 39FChristina EnghArington VA 34200:48:5537803:11:1529702:13:25 06:13:35 
32361 60MJim WaterhouseValatie NY 40900:52:2928802:58:3135202:22:41 06:13:40 
32497 27MJason LigonArlington VA 13100:39:5538203:11:4535102:22:30 06:14:09 
325518AT34FJennifer GibbinsVienna VA 38300:50:5233003:03:2733702:19:51 06:14:10 
326104 52FDonna WilliamsRoanoke VA 47100:57:3436703:09:1924702:07:22 06:14:14 
327263 40FJen PichaGreenville NC 27100:45:3344103:22:3323702:06:21 06:14:26 
328252 52FCynthia RevesmanHerndon VA 35900:49:3139703:15:0726902:09:57 06:14:34 
329218 39MMatt McCormackAlexandria VA 29900:46:1627702:57:2740202:31:03 06:14:45 
330424 47FJami Callahan-BrillHampton VA 25700:44:5839803:15:1130602:14:39 06:14:46 
331267 31FKathleen HolmesArlington VA 43600:54:374002:29:4213601:53:16 06:15:22 
332513MM35MGavin MirandaAlexandria VA 41000:52:3741903:19:1222202:03:49 06:15:36 
33340 38MClaudio SabanWashington DC 46700:56:1932103:02:4432402:17:30 06:16:32 
33439 58MMohsen SofastaiiChantilly VA 31800:47:4233403:04:0135802:24:50 06:16:32 
335211 30MJacob Stevens-KittnerWashington DC 15000:40:5146703:28:2422302:03:5000:04:0006:17:04 
336151 58MRick EnglishGlen Allen VA 39900:52:0230002:59:5936502:25:19 06:17:19 
337419 48MWalter HarterPurcellville VA 14300:40:3432903:03:1941002:34:02 06:17:54 
338209 50MBernard HarrisLititz PA 26400:45:1423802:52:3042702:40:45 06:18:28 
339462 20FSamantha ShafferRichmond VA 21100:43:1840603:16:3233002:18:52 06:18:41 
340200 35FJaime KurtzCharlottesville VA 26600:45:1945203:24:5825702:08:35 06:18:51 
PlaceBibCoAgSNAMEcity/stateDQRankSwim&T1RankBikeRankT2&RunPENALTYTIMEDQ
341161 42FAileen RoderWashington DC 46300:56:1433203:03:4233102:19:05 06:19:00 
342199 39FJoanna SchranzNorfolk VA 49101:01:4234503:05:0829002:12:27 06:19:17 
343456 47FTracy PolingManakin Sabot VA 27500:45:3636903:09:3034102:20:2400:04:0006:19:29 
34414 31FElysia RoserBaltimore MD 41100:52:4131003:01:3236702:25:34 06:19:47 
345158 46MAnthony BarnesArliington VA 27200:45:3437603:10:2535702:24:39 06:20:36 
34615 33FStephanie BrealeyWashington DC 38500:51:0338903:13:5331202:15:54 06:20:49 
347381 37MPatrick RipleyRichmond VA 37000:50:1734603:05:1336602:25:27 06:20:56 
348114 51MAndrew SteinfeldSilver Spring MD 49701:03:3836303:08:5125802:08:39 06:21:06 
349388 31MJonathan StewartCatonsville MD 24100:44:1536503:08:5638402:28:14 06:21:24 
35087 43MJeffrey HorwitzArlington VA 27800:45:3936603:09:1537602:27:04 06:21:58 
351504MM31MWalter AveSilver Spring MD 44200:54:4433103:03:2835602:23:49 06:22:00 
35212 39FKate KauferWashingotn DC 29500:46:1138803:13:4934902:22:07 06:22:06 
353368 46MJeff McIntyreCabin John MD 31000:47:1034303:04:5639802:30:27 06:22:32 
354481 31MNick WebsterAlexandria VA 22300:43:3435703:07:3340302:31:28 06:22:33 
355173 52MTim GodseyChapel Hill NC 48601:00:2138303:12:1727402:10:14 06:22:51 
356284 31FCaroline WeltyNew York NY 26300:45:0845803:26:1828602:11:35 06:23:00 
35753 50MGlenn ByrdWoodbine MD 34900:49:0935503:07:2937902:27:38 06:24:15 
35885 42FKristin SwiftSt Marys City MD 46800:56:2639203:14:0330302:14:08 06:24:37 
359393 39FAlison RingamanVirginia Beach VA 40000:52:0335303:07:2237002:26:06 06:25:30 
360391 53FKaren BennettReston VA 44900:54:5544303:22:3725402:08:13 06:25:44 
361574 32FAshley CastilloAlexandria VA 20200:43:0950203:40:5720302:01:48 06:25:53 
362583 45MEric EldridgeCentreville VA 28100:45:4647003:30:2426702:09:50 06:25:59 
363460 41MTimothy WillisSilver Spring MD 36800:50:0529802:59:4941402:36:13 06:26:06 
364272 42FJohanna TaddikenArlington VA 31100:47:1239303:14:1836002:25:00 06:26:29 
365361 34FEmily WalshHerndon VA 34800:49:0845703:26:1528502:11:31 06:26:54 
366175 49MTripp GodseyRoanoke VA 30400:46:4923902:52:4144502:47:33 06:27:02 
367350 51FKristina AmentAlexandria VA 48400:59:5335003:06:5034502:21:25 06:28:07 
368373 61MJames HughesHarrisonburg VA 37200:50:2137503:10:2438002:27:41 06:28:25 
369511MM33MKevin WerryLake Ridege VA 45100:55:0242503:20:1430002:13:39 06:28:54 
37066 54MDouglas HartmanSpringfield VA 50601:05:3238103:11:4128702:11:55 06:29:07 
371567 43FJean DonisPotomac Falls VA 22600:43:3851203:54:4812401:51:46 06:30:12 
PlaceBibCoAgSNAMEcity/stateDQRankSwim&T1RankBikeRankT2&RunPENALTYTIMEDQ
37244 34MJonathan BrownHerndon VA 29000:46:0031403:01:5843802:42:57 06:30:55 
373495MC45MMichael KelleherWashington DC 37300:50:2440503:16:2636102:25:05 06:31:55 
374149 37FKathy HsuWashington DC 47700:58:2534403:05:0238502:28:39 06:32:06 
37518 49FLeah CoughlinReston VA 49201:01:5339403:14:2931302:15:58 06:32:19 
37626 36FJen GreenDerwood MD 34300:48:5635103:06:5941502:36:40 06:32:35 
377228 28MBen FordArlington VA 31200:47:1434103:04:3743202:41:26 06:33:16 
378116 45FJoyce JonesWashington DC 43100:53:5437003:09:4139502:29:44 06:33:18 
379503MF30FJessica AthertonNorfolk VA 42800:53:4430403:00:3542102:39:02 06:33:20 
380259 31FStephanie TanRockville MD 41700:52:5540103:15:5235902:24:52 06:33:38 
381314 30FVictoria HoughtonNorth Bethesda MD 29700:46:1248703:33:5829802:13:31 06:33:40 
382103 36MKevin AlveyBurke VA 37600:50:3443303:21:2034702:21:57 06:33:50 
383219 32FNatalie BrufordArlington VA 34700:49:0645403:25:1431002:15:3400:04:0006:33:54 
384178 49MJason TeramaeVienna VA 47000:57:1343603:21:5928102:11:1300:04:0006:34:24 
385327 43FCorky SturtevantSpringfield VA 45200:55:1347503:31:0025502:08:21 06:34:33 
386183 53FStephanie ColburnBroadlands VA 22400:43:3444003:22:3138602:28:41 06:34:46 
387494C33MJonathan KendallBealeton VA 39100:51:2331703:02:1643602:42:37 06:36:15 
38849 47FMichele PotterGermantown MD 32300:47:5342303:20:0339302:29:27 06:37:22 
389322 27FTal KopanArlington VA 45900:55:5145303:25:0231802:16:53 06:37:44 
39027 28FTahra JohnsonWashington DC 27600:45:3846503:28:1636202:25:08 06:39:02 
391588 32FGabrielle PetersenArlington VA 30700:46:5541703:18:5440902:33:38 06:39:26 
392287 44FChristy JonesSilver Spring MD 40300:52:1245603:25:5834402:21:21 06:39:30 
39386 36MEric BachrachChesterfield VA 39300:51:4244203:22:3636302:25:14 06:39:31 
394587 42FDiane KeefeManassas VA 14900:40:4941303:17:5942802:40:47 06:39:35 
39552 33FJosie HyamsArlington VA 46100:56:0339103:14:0239402:29:39 06:39:44 
396436 46MRalph PellecchiaAllendale NJ 44800:54:5434903:06:2042302:39:08 06:40:20 
39788 34FSara GreeneSpringfield VA 50701:05:5236403:08:5336902:25:42 06:40:26 
398569 37FCynthia HallWoodbridge VA 49601:03:2640403:16:2634202:20:39 06:40:31 
399447 35MEmerson PadiernosWashington DC 35500:49:2342803:20:5140002:30:41 06:40:54 
400425 50MJim EllisMcLean VA 43200:53:5534203:04:5343402:42:32 06:41:19 
401197 59MMasaki TakahashiMcLean VA 40200:52:0832703:03:0844302:46:14 06:41:28 
402324 50MKevin ChidwickManakin Sabot VA 33900:48:4633803:04:0744802:49:09 06:42:01 
PlaceBibCoAgSNAMEcity/stateDQRankSwim&T1RankBikeRankT2&RunPENALTYTIMEDQ
403192 49MJim DonleyBethesda MD 45000:54:5940903:17:1939702:29:58 06:42:15 
404273 27MNathanael HarwardNew York NY 30900:47:0442903:20:5341202:34:52 06:42:48 
40563 39FKelly AndrewsStafford VA 47600:58:2346003:26:3632602:17:54 06:42:52 
406416 46FMichele TuckerSpotsylvania VA 43500:54:3342003:19:3238902:28:59 06:43:04 
407519AT30FJoanna GomezWashington DC 44000:54:4035403:07:2343502:42:36 06:44:37 
408256 31FSarah PottertonVirginia Beach VA 42200:53:1346603:28:2335302:23:13 06:44:48 
409115 44FJanel PidgeonBerryville VA 40400:52:1841803:18:5841102:34:46 06:46:01 
41038 45MDennis ShineWashington DC 20500:43:1450903:47:2231102:15:53 06:46:28 
411187 50MThomas MinnockCranberry Two PA 25300:44:4532003:02:4345903:00:04 06:47:31 
4129 46MRoger ParkerHaymarket VA 35400:49:2127302:56:5246103:01:41 06:47:53 
41369 28FChelsea ChristArlington VA 30300:46:3949203:35:4137102:26:11 06:48:30 
414143 41MJustin SmithSpringfield VA 37800:50:3843203:21:1141602:36:46 06:48:34 
415475 45MDavid GreenOak Hill VA 36100:49:4026802:56:1946303:02:45 06:48:43 
416590 39FShanda FinniganFalls Church VA 34000:48:5143803:22:1342202:39:06 06:50:10 
417398 36FMelanie BarronRuther Glen VA 48100:59:0536203:08:2343902:43:19 06:50:46 
418156 39FRebecca BatesLeesburg VA 39200:51:3046403:28:0140602:32:19 06:51:49 
419304 34FBeverly LiAlexandria VA 12200:39:4149103:35:1941702:37:15 06:52:14 
420340 31FMeredith HamsherNew York NY 48801:00:4044703:23:0238802:28:54 06:52:35 
421347 26MMarc Stephen Monroe IIManassas VA 49001:01:3844503:22:5738302:28:11 06:52:44 
422356 46MRick AlwineAlexandria VA 51301:11:2347603:31:0027502:10:27 06:52:49 
423172 46FPatricia RashedSewickley PA 43700:54:3743003:20:5541802:37:45 06:53:17 
424203 57FLynn MattucciArlington VA 48300:59:4743403:21:2740802:33:25 06:54:38 
425526NM29MJustin BeckleyWashington DC 38200:50:5045503:25:5442002:38:00 06:54:42 
426237 30FLindsey MateseWashington DC 46200:56:1050003:39:2533502:19:43 06:55:18 
427159 53MRoy WatersBrookeville, MD 37900:50:4538603:13:1345002:51:44 06:55:41 
428268 33FErin FernerAnnapolis MD 39600:51:5347303:30:4340702:33:24 06:55:59 
429521NF49FHeidi CoxStafford VA 44500:54:4749003:35:0337402:26:54 06:56:43 
430225 37MAndrew UnsickerLorton VA 42700:53:3851504:08:3915201:55:23 06:57:39 
431374 24FBrittany McCauleyCatlett VA 41600:52:5348603:33:3740502:32:04 06:58:33 
432188 39FOrla BradyWashington DC 46600:56:1949503:37:2836402:25:15 06:59:00 
433280 27MAaron SeiterNew York NY 36400:49:5040303:16:1845302:52:53 06:59:00 
PlaceBibCoAgSNAMEcity/stateDQRankSwim&T1RankBikeRankT2&RunPENALTYTIMEDQ
434498MC42MGregory MageeFalls Church VA 46400:56:1444603:23:0042502:39:50 06:59:04 
435345 35MMerritt CassellCentreville VA 32800:48:1747203:30:3842902:41:07 07:00:01 
436271 44MMark MillerArlington VA 19100:42:3249703:37:4242602:40:44 07:00:57 
437136 50FDonna SumptionArlington VA 50401:05:2441103:17:4241902:37:57 07:01:01 
438306 55FLucy MooreMcLean VA 44100:54:4349803:38:4738702:28:51 07:02:19 
439586 34FBecky BaltesSilver Spring MD 46500:56:155502:32:0343702:42:54 07:02:23 
440413 50MPhilip DeeterWashington DC 49901:04:0847403:30:5938102:27:43 07:02:49 
441354 27FAnita SthalasayeeNew York City NY 51801:21:4948003:32:1726102:09:05 07:03:10 
442490C37MSteve KimGaithersburg MD 34400:48:5649903:39:2441302:34:58 07:03:16 
443101 43FAngela AlveyBurke VA 43300:54:0250403:42:2037502:26:58 07:03:18 
44454 49FLaura ByrdWoodbine MD 32500:48:1343103:21:0445502:55:30 07:04:46 
445132 51FAmy WilliamsRichmond VA 44300:54:4544403:22:5144402:47:20 07:04:55 
446523NM28MMatthew ToigoWashington DC 51401:13:1348503:33:0933602:19:43 07:06:04 
447157 58FCatherine LeeCulpeper VA 29800:46:1350103:40:2542402:39:48 07:06:25 
448497MC44MJohn PanekBowie MD 42900:53:5240703:16:3745602:56:02 07:06:31 
449404 54FBecky FulkersonArlington VA 39500:51:4839603:14:5946003:00:12 07:06:58 
450493 38MJeff KralikHaymarket VA 15900:41:1645003:24:2546203:02:31 07:08:12 
451205 40FSherri BrothersAlexandria VA 43000:53:5346803:29:0644202:45:39 07:08:37 
452522NF34FHolly DyeWashington DC 42500:53:2451103:49:4538202:27:56 07:11:05 
453427 59MWilliam OliverWashington DC 36900:50:1444903:23:2945802:58:26 07:12:09 
454269 32MJoe FernerAnnapolis MD 44400:54:4648803:34:1144002:43:20 07:12:16 
45583 57MMarc MonroeCatlett VA 51601:14:3647803:31:4537802:27:18 07:13:39 
456441 30FDonna TarzianRamsey NJ 27300:45:3450603:44:5844102:44:42 07:15:13 
457331 44FAngela DecintFalls Church VA 45700:55:4246303:27:5045202:52:47 07:16:18 
45813 38FBeth BukataLeesburg VA 45300:55:1837403:10:1846603:10:57 07:16:33 
459113 44MGary KartonArlington VA 46000:56:0150303:41:1243002:41:12 07:18:24 
460224 51FBarbara ZanottiBurke FL 41200:52:4249603:37:4044702:48:51 07:19:12 
461520AT31FCorey Portalatin-BerrienChesapeake VA 48200:59:4148103:32:3044902:49:54 07:22:04 
46210 45FLisa ParkerHaymarket VA 49301:01:5445903:26:3545402:54:17 07:22:46 
463264 48MFoster LeeGreenville NC 50101:04:4749403:36:5743302:42:15 07:23:58 
464589 48MPaul SmithFalls Church VA 1900:32:1829202:58:5247003:52:51 07:24:00 
PlaceBibCoAgSNAMEcity/stateDQRankSwim&T1RankBikeRankT2&RunPENALTYTIMEDQ
465215 52MMike MitchellWashington DC 51701:21:2648303:32:4939602:29:55 07:24:09 
466223 55FTamara SmithFalls Church VA 50901:07:3850803:47:0540402:31:31 07:26:13 
467313 27FCara DaviesAbingdon VA 50801:05:5948903:34:5044602:48:30 07:29:18 
46843 43MDirk SmithWashington DC 45600:55:3246103:26:4246503:09:06 07:31:19 
469516A54FNancy KeithleyManassas VA 50001:04:3651804:17:5426402:09:38 07:32:08 
470510MM39MHeath PlattSanford NC 51201:11:0446903:30:0645102:52:02 07:33:12 
47177 53MMichael SchrantzKing George VA 51001:08:3451704:17:4626602:09:4600:04:0007:40:05 
472506MM48MRobert GhermanLaytonsville MD 51501:13:41     07:40:41 
473241 41MMike StoneFairfax VA 47800:58:3551003:48:3246403:07:11 07:54:17 
474412 53MSteve HauptmanLeesburg VA 50501:05:3048403:32:5046803:20:23 07:58:42 
475382 60MDaniel CaldwellRichmond VA 48000:58:5051404:03:1945702:57:01 07:59:10 
47619 49FGina AcunaGaithersburg MD 51101:10:01     08:10:08 
477333 70MW Bruce OverbayLorton VA 45400:55:2751303:55:3546903:37:52 08:28:52 
47859 37FRebecca WilcoxAlexandria VA 49501:02:1251604:15:4746703:11:56 08:29:54 

** Results are for the private use of participants and are the Intellectual Property of Set Up Events. Unauthorized use of these results is prohibited.